Time;durP1;ratioP1;P1;durP2;ratioP2;P2;SDS_P1;SDS_P2;PMS_P1;PMS_P2;Temp;Humidity;BMP_temperature;BMP_pressure;BME280_temperature;BME280_humidity;BME280_pressure;Samples;Min_cycle;Max_cycle;Signal;HPM_P1;HPM_P2
2022/01/18 00:01:11;;;;;;;48.05;8.80;;;4.70;99.90;;;;;;5074990;28;20043;-80
2022/01/18 00:03:36;;;;;;;38.38;8.25;;;5.60;99.90;;;;;;5093015;28;20093;-81
2022/01/18 00:06:03;;;;;;;35.58;7.90;;;4.70;99.90;;;;;;5092281;28;20043;-80
2022/01/18 00:08:28;;;;;;;42.75;8.90;;;4.70;99.90;;;;;;5091988;28;20127;-79
2022/01/18 00:10:54;;;;;;;36.92;8.68;;;4.60;99.90;;;;;;5091769;28;20132;-80
2022/01/18 00:13:38;;;;;;;37.30;8.45;;;4.60;99.90;;;;;;5092352;28;20040;-79
2022/01/18 00:18:34;;;;;;;48.80;10.27;;;6.20;99.90;;;;;;5092864;28;20098;-79
2022/01/18 00:23:33;;;;;;;48.53;10.30;;;4.80;99.90;;;;;;5091785;28;20472;-80
2022/01/18 00:25:59;;;;;;;40.55;9.57;;;4.80;99.90;;;;;;5109372;28;20044;-80
2022/01/18 00:28:28;;;;;;;36.72;9.07;;;4.80;99.90;;;;;;5075152;28;20526;-80
2022/01/18 00:36:23;;;;;;;35.40;9.85;;;4.90;99.90;;;;;;5091015;28;20048;-79
2022/01/18 00:38:49;;;;;;;38.40;9.15;;;4.80;99.90;;;;;;5092054;28;20432;-80
2022/01/18 00:41:18;;;;;;;42.33;8.27;;;5.00;99.90;;;;;;5075237;28;20048;-78
2022/01/18 00:43:45;;;;;;;36.38;8.85;;;7.00;99.90;;;;;;5091286;28;20131;-79
2022/01/18 00:46:12;;;;;;;34.70;8.07;;;6.50;99.90;;;;;;5091923;28;20495;-79
2022/01/18 00:48:38;;;;;;;39.70;10.05;;;5.00;99.90;;;;;;5092089;28;20047;-80
2022/01/18 00:51:06;;;;;;;39.05;8.25;;;5.00;99.90;;;;;;5090409;28;20039;-78
2022/01/18 00:53:35;;;;;;;38.55;8.65;;;4.90;99.90;;;;;;5091785;28;20040;-78
2022/01/18 00:58:29;;;;;;;40.08;8.20;;;5.00;99.90;;;;;;5091367;28;20036;-78
2022/01/18 01:00:55;;;;;;;33.30;7.28;;;5.00;99.90;;;;;;5091478;28;20043;-79
2022/01/18 01:03:21;;;;;;;43.60;7.90;;;5.00;99.90;;;;;;5092081;28;20118;-78
2022/01/18 01:05:46;;;;;;;40.65;10.07;;;5.60;99.90;;;;;;5074037;28;20518;-78
2022/01/18 01:08:12;;;;;;;43.20;7.68;;;4.90;99.90;;;;;;5091270;28;20035;-78
2022/01/18 01:10:38;;;;;;;37.13;7.47;;;;;;;;;;5074445;28;20055;-78
2022/01/18 01:13:05;;;;;;;38.05;7.20;;;5.00;99.90;;;;;;5090229;28;20048;-78
2022/01/18 01:15:35;;;;;;;30.00;7.38;;;5.10;99.90;;;;;;5091437;28;20040;-78
2022/01/18 01:18:30;;;;;;;39.40;9.02;;;5.80;99.90;;;;;;5075248;28;20086;-77
2022/01/18 01:32:46;;;;;;;21.65;7.78;;;5.40;99.90;;;;;;5090642;28;20054;-78
2022/01/18 01:45:35;;;;;;;30.58;7.07;;;5.30;99.90;;;;;;5090560;28;20035;-78
2022/01/18 01:48:01;;;;;;;24.65;5.93;;;5.30;99.90;;;;;;5089622;28;20036;-77
2022/01/18 01:50:40;;;;;;;31.35;6.22;;;5.00;99.90;;;;;;5090784;28;20084;-78
2022/01/18 01:53:06;;;;;;;36.47;6.78;;;7.70;99.90;;;;;;5090400;28;20048;-79
2022/01/18 01:55:32;;;;;;;32.75;7.30;;;5.30;99.90;;;;;;5072870;28;20108;-78
2022/01/18 01:57:58;;;;;;;32.67;6.88;;;5.10;99.90;;;;;;5090565;28;20036;-79
2022/01/18 02:00:23;;;;;;;28.98;6.20;;;5.30;99.90;;;;;;5091266;28;20047;-79
2022/01/18 02:02:50;;;;;;;22.33;5.90;;;5.20;99.90;;;;;;5090984;28;20028;-77
2022/01/18 02:05:16;;;;;;;30.17;6.35;;;5.30;99.90;;;;;;5074081;28;20062;-76
2022/01/18 02:07:41;;;;;;;27.88;5.85;;;6.50;99.90;;;;;;5090886;28;20078;-79
2022/01/18 02:10:08;;;;;;;27.00;6.18;;;5.10;99.90;;;;;;5089865;28;20046;-79
2022/01/18 02:12:34;;;;;;;29.83;5.32;;;5.30;99.90;;;;;;5089998;28;20085;-80
2022/01/18 02:15:10;;;;;;;29.52;6.15;;;5.20;99.90;;;;;;5089078;28;20051;-79
2022/01/18 02:23:27;;;;;;;15.93;3.90;;;5.10;99.90;;;;;;5089881;28;20048;-80
2022/01/18 02:25:52;;;;;;;27.40;5.25;;;7.00;99.90;;;;;;5089919;28;20174;-78
2022/01/18 02:28:19;;;;;;;17.88;4.75;;;5.00;99.90;;;;;;5073694;28;20500;-78
2022/01/18 02:30:45;;;;;;;23.52;5.20;;;5.00;99.90;;;;;;5073339;28;20397;-78
2022/01/18 02:33:13;;;;;;;23.00;5.35;;;5.00;99.90;;;;;;5090395;28;20040;-78
2022/01/18 02:35:38;;;;;;;23.67;6.43;;;4.80;99.90;;;;;;5089666;28;20153;-78
2022/01/18 02:38:05;;;;;;;20.33;5.38;;;4.80;99.90;;;;;;5073129;28;20122;-79
2022/01/18 02:40:32;;;;;;;26.75;6.18;;;4.80;99.90;;;;;;5090052;28;20141;-78
2022/01/18 02:43:01;;;;;;;21.73;6.60;;;5.00;99.90;;;;;;5089245;28;20036;-80
2022/01/18 02:45:28;;;;;;;22.42;6.03;;;5.00;99.90;;;;;;5090492;28;20043;-81
2022/01/18 02:47:54;;;;;;;19.77;4.88;;;5.20;99.90;;;;;;5089943;28;20488;-79
2022/01/18 02:50:23;;;;;;;21.90;5.45;;;5.10;99.90;;;;;;5089801;28;20036;-79
2022/01/18 02:52:49;;;;;;;28.83;5.72;;;6.00;99.90;;;;;;5090352;28;20036;-79
2022/01/18 02:55:15;;;;;;;18.77;4.90;;;5.10;99.90;;;;;;5089924;28;20541;-79
2022/01/18 02:57:55;;;;;;;23.58;5.20;;;5.20;99.90;;;;;;5076451;28;20093;-79
2022/01/18 03:00:31;;;;;;;21.08;5.18;;;5.20;99.90;;;;;;5094314;28;20101;-78
2022/01/18 03:03:17;;;;;;;18.90;4.82;;;5.60;99.90;;;;;;5093756;28;20365;-79
2022/01/18 03:05:45;;;;;;;17.75;3.65;;;5.50;99.90;;;;;;5093152;28;20036;-79
2022/01/18 03:08:12;;;;;;;17.80;4.50;;;5.20;99.90;;;;;;5092909;28;20082;-80
2022/01/18 03:10:39;;;;;;;19.27;4.38;;;5.80;99.90;;;;;;5067700;28;20086;-79
2022/01/18 03:13:06;;;;;;;15.27;3.78;;;6.60;99.90;;;;;;5072705;28;20044;-78
2022/01/18 03:15:34;;;;;;;17.02;4.30;;;5.80;99.90;;;;;;5056423;28;20479;-78
2022/01/18 03:18:07;;;;;;;21.65;3.80;;;5.90;99.90;;;;;;5072113;28;20040;-80
2022/01/18 03:20:33;;;;;;;11.88;3.50;;;6.00;99.90;;;;;;5073551;28;20098;-78
2022/01/18 03:22:59;;;;;;;18.73;3.80;;;5.90;99.90;;;;;;5073045;28;20071;-79
2022/01/18 03:28:04;;;;;;;18.60;3.83;;;;;;;;;;5089697;28;20079;-79
2022/01/18 03:30:30;;;;;;;16.17;3.60;;;;;;;;;;5056011;28;20083;-78
2022/01/18 03:32:56;;;;;;;14.43;3.05;;;;;;;;;;5072091;28;20040;-78
2022/01/18 03:35:23;;;;;;;13.02;3.33;;;;;;;;;;5056532;28;20045;-78
2022/01/18 03:37:49;;;;;;;14.93;2.67;;;;;;;;;;5072904;28;20067;-78
2022/01/18 03:40:15;;;;;;;13.00;3.13;;;;;;;;;;5072431;28;20446;-78
2022/01/18 03:42:46;;;;;;;17.70;3.30;;;;;;;;;;5073415;28;20079;-79
2022/01/18 03:45:20;;;;;;;14.52;2.72;;;6.00;99.90;;;;;;5089449;28;20048;-78
2022/01/18 03:47:46;;;;;;;16.45;3.33;;;6.10;99.90;;;;;;5072010;28;20056;-79
2022/01/18 03:50:13;;;;;;;11.23;2.95;;;6.10;99.90;;;;;;5072849;28;20065;-78
2022/01/18 03:52:41;;;;;;;10.32;2.65;;;6.00;99.90;;;;;;5072959;28;20048;-79
2022/01/18 03:55:08;;;;;;;12.32;3.13;;;6.00;99.90;;;;;;5088538;28;20079;-79
2022/01/18 03:57:34;;;;;;;12.98;2.67;;;6.10;99.90;;;;;;5085969;28;20048;-79
2022/01/18 04:00:00;;;;;;;14.32;3.00;;;6.10;99.90;;;;;;5091625;28;20084;-79
2022/01/18 04:02:26;;;;;;;17.48;3.03;;;6.10;99.90;;;;;;5076296;28;20046;-80
2022/01/18 04:04:51;;;;;;;11.13;2.83;;;6.10;99.90;;;;;;5075512;28;20036;-80
2022/01/18 04:07:17;;;;;;;16.10;3.10;;;6.10;99.90;;;;;;5090999;28;20118;-80
2022/01/18 04:09:43;;;;;;;11.40;2.72;;;6.20;99.90;;;;;;5075980;28;20127;-80
2022/01/18 04:12:09;;;;;;;11.40;3.22;;;6.10;99.90;;;;;;5092049;28;20122;-81
2022/01/18 04:14:35;;;;;;;10.80;3.35;;;6.10;99.90;;;;;;5092101;28;20498;-80
2022/01/18 04:27:37;;;;;;;10.23;2.90;;;5.90;99.90;;;;;;5091812;28;20127;-79
2022/01/18 04:30:05;;;;;;;16.75;3.65;;;5.90;99.90;;;;;;5090687;28;20112;-79
2022/01/18 04:32:30;;;;;;;14.73;3.20;;;5.90;99.90;;;;;;5092408;28;20121;-79
2022/01/18 04:34:56;;;;;;;9.25;2.65;;;5.80;99.90;;;;;;5091899;28;20090;-79
2022/01/18 04:37:21;;;;;;;14.70;3.78;;;5.60;99.90;;;;;;5091509;28;20508;-78
2022/01/18 04:39:48;;;;;;;12.52;3.10;;;5.80;99.90;;;;;;5075473;28;20126;-78
2022/01/18 04:42:34;;;;;;;11.88;2.85;;;5.80;99.90;;;;;;5073857;28;20400;-79
2022/01/18 04:50:28;;;;;;;11.07;2.95;;;5.60;99.90;;;;;;5071007;28;20503;-80
2022/01/18 04:52:54;;;;;;;8.63;2.58;;;5.70;99.90;;;;;;5071207;28;20044;-78
2022/01/18 04:55:20;;;;;;;8.50;2.55;;;5.70;99.90;;;;;;5082561;28;20036;-77
2022/01/18 04:57:52;;;;;;;10.50;2.95;;;7.70;99.90;;;;;;5073466;28;20520;-77
2022/01/18 05:00:19;;;;;;;17.55;3.38;;;6.50;99.90;;;;;;5074896;28;20044;-77
2022/01/18 05:02:47;;;;;;;10.27;2.60;;;6.00;99.90;;;;;;5092153;28;20361;-77
2022/01/18 05:05:22;;;;;;;15.38;3.30;;;5.70;99.90;;;;;;5073939;28;20051;-77
2022/01/18 05:08:01;;;;;;;14.82;3.58;;;6.00;99.90;;;;;;5091079;28;20050;-76
2022/01/18 05:10:29;;;;;;;16.65;3.53;;;5.80;99.90;;;;;;5090710;28;20389;-76
2022/01/18 05:12:56;;;;;;;11.57;3.10;;;5.80;99.90;;;;;;5090938;28;20047;-76
2022/01/18 05:23:15;;;;;;;14.23;3.45;;;5.80;99.90;;;;;;5091136;28;20119;-78
2022/01/18 05:25:42;;;;;;;13.05;2.97;;;5.80;99.90;;;;;;5090386;28;20537;-78
2022/01/18 05:28:08;;;;;;;11.43;2.97;;;8.40;99.90;;;;;;5090282;28;20040;-78
2022/01/18 05:30:33;;;;;;;13.35;3.58;;;5.90;99.90;;;;;;5091306;28;20047;-77
2022/01/18 05:32:59;;;;;;;14.43;3.83;;;5.80;99.90;;;;;;5089906;28;20051;-77
2022/01/18 05:35:25;;;;;;;12.55;2.88;;;6.30;99.90;;;;;;5091291;28;20047;-77
2022/01/18 05:37:51;;;;;;;21.60;4.93;;;7.60;99.90;;;;;;5090750;28;20072;-77
2022/01/18 05:40:19;;;;;;;18.65;3.70;;;5.90;99.90;;;;;;5090253;28;20136;-77
2022/01/18 05:42:45;;;;;;;17.10;3.72;;;5.80;99.90;;;;;;5091127;28;20043;-77
2022/01/18 05:45:11;;;;;;;13.00;3.30;;;6.40;99.90;;;;;;5091247;28;20040;-78
2022/01/18 05:47:41;;;;;;;29.95;4.88;;;5.90;99.90;;;;;;5091312;28;20043;-78
2022/01/18 05:50:09;;;;;;;17.25;3.72;;;5.80;99.90;;;;;;5074022;28;20591;-79
2022/01/18 05:52:35;;;;;;;15.10;3.42;;;5.90;99.90;;;;;;5074173;28;20082;-80
2022/01/18 05:55:01;;;;;;;16.27;3.78;;;5.90;99.90;;;;;;5091007;28;20093;-80
2022/01/18 05:57:26;;;;;;;14.02;3.92;;;5.90;99.90;;;;;;5091089;28;20061;-79
2022/01/18 05:59:55;;;;;;;27.38;4.05;;;5.90;99.90;;;;;;5091010;28;20032;-79
2022/01/18 06:02:42;;;;;;;14.88;3.53;;;5.90;99.90;;;;;;5074367;28;20086;-78
2022/01/18 06:07:54;;;;;;;;;;;8.00;99.90;;;;;;5090708;28;20054;-79
2022/01/18 06:10:20;;;;;;;13.40;3.13;;;5.90;99.90;;;;;;5091340;28;19994;-78
2022/01/18 06:12:46;;;;;;;16.42;3.35;;;5.50;99.90;;;;;;5091090;28;20055;-77
2022/01/18 06:15:11;;;;;;;12.30;4.10;;;5.80;99.90;;;;;;5090436;28;20489;-78
2022/01/18 06:17:38;;;;;;;13.90;3.78;;;5.80;99.90;;;;;;5074166;28;20134;-79
2022/01/18 06:20:08;;;;;;;19.85;5.85;;;6.10;99.90;;;;;;5090539;28;20499;-78
2022/01/18 06:22:34;;;;;;;20.10;5.82;;;5.90;99.90;;;;;;5073751;28;20073;-79
2022/01/18 06:24:59;;;;;;;13.60;4.93;;;6.20;99.90;;;;;;5090483;28;20039;-79
2022/01/18 06:27:25;;;;;;;19.35;5.88;;;5.80;99.90;;;;;;5107634;28;20040;-80
2022/01/18 06:29:52;;;;;;;13.27;5.35;;;5.70;99.90;;;;;;5088897;28;20147;-80
2022/01/18 06:32:18;;;;;;;22.27;5.50;;;8.40;99.90;;;;;;5077611;28;20052;-78
2022/01/18 06:34:43;;;;;;;15.82;5.68;;;6.00;99.90;;;;;;5092670;28;20424;-77
2022/01/18 06:37:09;;;;;;;24.33;5.72;;;5.80;99.90;;;;;;5093941;28;20396;-78
2022/01/18 06:39:35;;;;;;;19.65;6.15;;;5.80;99.90;;;;;;5093958;28;20039;-78
2022/01/18 06:42:01;;;;;;;17.38;5.78;;;6.30;99.90;;;;;;5109983;28;20079;-78
2022/01/18 06:44:27;;;;;;;13.98;4.20;;;;;;;;;;5094508;28;20068;-78
2022/01/18 06:46:53;;;;;;;13.82;4.50;;;5.70;99.90;;;;;;5110981;28;20055;-78
2022/01/18 06:49:19;;;;;;;18.90;6.00;;;5.60;99.90;;;;;;5093732;28;20036;-78
2022/01/18 06:51:45;;;;;;;19.35;5.00;;;5.80;99.90;;;;;;5094271;28;20148;-79
2022/01/18 06:54:15;;;;;;;21.08;6.22;;;5.60;99.90;;;;;;5093415;28;20075;-80
2022/01/18 06:56:44;;;;;;;13.80;3.90;;;7.80;99.90;;;;;;5093305;28;20047;-78
2022/01/18 06:59:10;;;;;;;16.80;4.88;;;5.70;99.90;;;;;;5093418;28;20369;-79
2022/01/18 07:01:36;;;;;;;15.65;4.00;;;;;;;;;;5094181;28;20511;-79
2022/01/18 07:04:02;;;;;;;15.57;5.20;;;5.30;99.90;;;;;;5076071;28;20076;-79
2022/01/18 07:06:28;;;;;;;16.17;5.45;;;5.50;99.90;;;;;;5093959;28;20129;-79
2022/01/18 07:09:03;;;;;;;15.63;5.38;;;5.10;99.90;;;;;;5093222;28;20074;-79
2022/01/18 07:11:28;;;;;;;;;;;5.40;99.90;;;;;;5092571;28;20047;-79
2022/01/18 07:13:54;;;;;;;18.77;5.70;;;5.40;99.90;;;;;;5092884;28;19916;-80
2022/01/18 07:16:20;;;;;;;14.52;6.85;;;5.60;99.90;;;;;;5093757;28;20048;-78
2022/01/18 07:18:46;;;;;;;16.23;6.72;;;5.40;99.90;;;;;;5092774;28;20098;-78
2022/01/18 07:21:12;;;;;;;19.73;6.88;;;5.40;99.90;;;;;;5093424;28;20035;-78
2022/01/18 07:23:38;;;;;;;16.70;6.75;;;5.40;99.90;;;;;;5075507;28;20123;-79
2022/01/18 07:26:04;;;;;;;15.80;6.38;;;5.30;99.90;;;;;;5091642;28;20123;-79
2022/01/18 07:28:30;;;;;;;19.50;6.63;;;5.40;99.90;;;;;;5093392;28;20059;-78
2022/01/18 07:30:56;;;;;;;21.00;6.78;;;5.30;99.90;;;;;;5091233;28;20040;-71
2022/01/18 07:33:23;;;;;;;18.88;7.25;;;5.30;99.90;;;;;;5092637;28;20459;-76
2022/01/18 07:35:49;;;;;;;18.48;6.43;;;5.50;99.90;;;;;;5076586;28;20149;-77
2022/01/18 07:38:17;;;;;;;18.38;6.82;;;5.20;99.90;;;;;;5092226;28;20051;-76
2022/01/18 07:44:25;;;;;;;19.67;7.70;;;;;;;;;;5087855;28;20554;-76
2022/01/18 07:46:51;;;;;;;26.20;8.43;;;5.50;99.90;;;;;;5089390;28;20055;-76
2022/01/18 07:49:17;;;;;;;32.28;12.27;;;5.30;99.90;;;;;;5091933;28;20036;-86
2022/01/18 07:51:43;;;;;;;28.20;11.15;;;5.70;99.90;;;;;;5108009;28;20051;-72
2022/01/18 07:54:10;;;;;;;24.67;9.02;;;5.10;99.90;;;;;;5089489;28;20039;-73
2022/01/18 07:56:39;;;;;;;18.90;8.05;;;;;;;;;;5104345;28;20112;-80
2022/01/18 07:59:05;;;;;;;20.15;6.63;;;;;;;;;;5089733;28;20083;-81
2022/01/18 08:01:31;;;;;;;18.02;6.85;;;5.30;99.90;;;;;;5090066;28;20091;-82
2022/01/18 08:03:57;;;;;;;18.10;6.68;;;;;;;;;;5090452;28;20067;-75
2022/01/18 08:06:22;;;;;;;16.33;6.80;;;5.10;99.90;;;;;;5090202;28;20806;-74
2022/01/18 08:08:48;;;;;;;23.67;9.10;;;;;;;;;;5106788;28;20186;-75
2022/01/18 08:11:14;;;;;;;25.88;9.07;;;;;;;;;;5072307;28;20052;-77
2022/01/18 08:13:41;;;;;;;24.63;8.93;;;5.10;99.90;;;;;;5092676;28;20471;-80
2022/01/18 08:17:00;;;;;;;20.77;9.02;;;5.10;99.90;;;;;;5087096;28;20468;-79
2022/01/18 08:18:59;;;;;;;19.50;8.48;;;5.20;99.90;;;;;;5076636;28;20139;-75
2022/01/18 08:21:26;;;;;;;22.63;9.00;;;5.00;99.90;;;;;;5079470;28;20044;-76
2022/01/18 08:23:52;;;;;;;27.55;9.95;;;5.20;99.90;;;;;;5088353;28;20050;-77
2022/01/18 08:26:18;;;;;;;83.35;19.90;;;5.40;99.90;;;;;;5089391;28;20044;-78
2022/01/18 08:28:44;;;;;;;29.48;9.80;;;5.20;99.90;;;;;;5071457;28;20051;-78
2022/01/18 08:31:10;;;;;;;63.05;17.25;;;5.40;99.90;;;;;;5088380;28;20066;-74
2022/01/18 08:33:36;;;;;;;321.13;71.75;;;;;;;;;;5088342;28;20052;-75
2022/01/18 08:36:06;;;;;;;30.45;13.23;;;5.80;99.90;;;;;;5087418;28;20519;-76
2022/01/18 08:38:32;;;;;;;241.23;51.80;;;6.20;99.90;;;;;;5089399;28;20044;-78
2022/01/18 08:40:59;;;;;;;42.08;14.82;;;5.70;99.90;;;;;;5086817;28;20051;-76
2022/01/18 08:43:26;;;;;;;33.63;12.93;;;5.90;99.90;;;;;;5097216;28;20050;-77
2022/01/18 08:45:51;;;;;;;25.33;11.20;;;5.90;99.90;;;;;;5090853;28;20561;-80
2022/01/18 08:48:17;;;;;;;22.50;10.35;;;5.60;99.90;;;;;;5088931;28;20047;-78
2022/01/18 08:50:43;;;;;;;27.90;10.82;;;6.00;99.90;;;;;;5088850;28;20508;-79
2022/01/18 08:53:09;;;;;;;28.60;9.68;;;6.10;99.90;;;;;;5070985;28;20135;-78
2022/01/18 08:55:35;;;;;;;25.38;9.20;;;;;;;;;;5089899;28;20128;-78
2022/01/18 08:58:02;;;;;;;22.30;8.18;;;6.20;99.90;;;;;;5075894;28;20092;-74
2022/01/18 09:00:30;;;;;;;18.05;8.05;;;6.00;99.90;;;;;;5088396;28;20149;-75
2022/01/18 09:02:56;;;;;;;17.38;6.63;;;5.90;99.90;;;;;;5069229;28;20047;-74
2022/01/18 09:05:23;;;;;;;20.63;6.75;;;6.30;99.90;;;;;;5088286;28;20048;-74
2022/01/18 09:07:50;;;;;;;16.60;5.97;;;;;;;;;;5087722;28;20048;-74
2022/01/18 09:10:15;;;;;;;21.17;7.38;;;5.90;99.90;;;;;;5070233;28;20048;-73
2022/01/18 09:12:41;;;;;;;14.70;6.05;;;5.80;99.90;;;;;;5070589;28;20039;-74
2022/01/18 09:15:10;;;;;;;22.15;8.95;;;5.80;99.90;;;;;;5084825;28;20092;-74
2022/01/18 09:17:37;;;;;;;16.00;6.47;;;5.90;99.90;;;;;;5076373;28;20127;-74
2022/01/18 09:20:09;;;;;;;19.48;6.70;;;5.90;99.90;;;;;;5087279;28;20077;-74
2022/01/18 09:22:39;;;;;;;11.38;5.03;;;5.70;99.90;;;;;;5085162;28;20079;-73
2022/01/18 09:25:08;;;;;;;18.80;5.68;;;5.90;99.90;;;;;;5070113;28;20089;-74
2022/01/18 09:27:34;;;;;;;14.45;4.55;;;6.10;99.90;;;;;;5087121;28;20044;-73
2022/01/18 09:30:00;;;;;;;15.48;5.05;;;5.90;99.90;;;;;;5087204;28;20389;-73
2022/01/18 09:32:25;;;;;;;16.10;5.95;;;6.00;99.90;;;;;;5070668;28;20051;-73
2022/01/18 09:34:51;;;;;;;15.57;5.45;;;5.90;99.90;;;;;;5087034;28;20048;-74
2022/01/18 09:37:17;;;;;;;19.17;6.85;;;6.00;99.90;;;;;;5088655;28;20032;-73
2022/01/18 09:39:43;;;;;;;13.65;5.35;;;6.00;99.90;;;;;;5087763;28;20106;-74
2022/01/18 09:42:10;;;;;;;13.25;4.85;;;5.70;99.90;;;;;;5098892;28;20044;-73
2022/01/18 09:44:36;;;;;;;12.15;5.75;;;6.00;99.90;;;;;;5086331;28;20039;-73
2022/01/18 09:47:03;;;;;;;16.55;6.03;;;5.90;99.90;;;;;;5070215;28;20059;-73
2022/01/18 09:49:29;;;;;;;14.57;6.55;;;6.10;99.90;;;;;;5070302;28;20094;-75
2022/01/18 09:51:54;;;;;;;12.68;5.38;;;6.00;99.90;;;;;;5086521;28;20132;-74
2022/01/18 09:54:20;;;;;;;13.95;6.13;;;6.30;99.90;;;;;;5086840;28;20050;-74
2022/01/18 09:56:46;;;;;;;16.10;6.07;;;6.10;99.90;;;;;;5088031;28;20044;-74
2022/01/18 09:59:11;;;;;;;18.33;6.95;;;6.20;99.90;;;;;;5085683;28;20032;-73
2022/01/18 10:01:38;;;;;;;18.08;6.20;;;6.10;99.90;;;;;;5087909;28;20353;-76
2022/01/18 10:04:31;;;;;;;15.15;6.22;;;6.10;99.90;;;;;;5087677;28;20036;-74
2022/01/18 10:06:57;;;;;;;17.20;7.80;;;6.20;99.90;;;;;;5091957;28;20045;-74
2022/01/18 10:09:25;;;;;;;16.67;6.75;;;6.10;99.90;;;;;;5090734;28;20067;-74
2022/01/18 10:12:12;;;;;;;13.02;5.72;;;6.10;99.90;;;;;;5074419;28;20047;-75
2022/01/18 10:14:41;;;;;;;14.02;5.50;;;6.20;99.90;;;;;;5073778;28;20048;-74
2022/01/18 10:17:10;;;;;;;12.23;6.45;;;6.10;99.90;;;;;;5090215;28;20083;-75
2022/01/18 10:19:50;;;;;;;17.27;5.93;;;5.90;99.90;;;;;;5091158;28;20047;-74
2022/01/18 10:22:22;;;;;;;24.25;7.53;;;6.40;99.90;;;;;;5072717;28;20048;-74
2022/01/18 10:24:48;;;;;;;15.68;6.70;;;6.20;99.90;;;;;;5091304;28;20044;-75
2022/01/18 10:27:14;;;;;;;14.07;6.45;;;6.10;99.90;;;;;;5090431;28;20137;-77
2022/01/18 10:29:48;;;;;;;14.20;5.15;;;6.40;99.90;;;;;;5073623;28;20128;-75
2022/01/18 10:32:28;;;;;;;11.38;5.53;;;6.30;99.90;;;;;;5108645;28;20408;-75
2022/01/18 10:37:25;;;;;;;14.40;5.05;;;6.10;99.90;;;;;;5091800;28;20052;-76
2022/01/18 10:39:55;;;;;;;17.38;6.53;;;6.10;99.90;;;;;;5090591;28;20043;-76
2022/01/18 10:42:31;;;;;;;15.23;6.60;;;6.10;99.90;;;;;;5091180;28;20381;-76
2022/01/18 10:45:34;;;;;;;17.55;6.93;;;6.10;99.90;;;;;;5090781;28;20047;-76
2022/01/18 10:48:11;;;;;;;15.75;6.35;;;6.30;99.90;;;;;;5054173;28;20044;-76
2022/01/18 10:50:40;;;;;;;14.65;6.30;;;6.10;99.90;;;;;;5074227;28;20056;-76
2022/01/18 10:53:16;;;;;;;16.25;6.65;;;6.20;99.90;;;;;;5090047;28;20048;-76
2022/01/18 10:55:43;;;;;;;12.27;5.50;;;6.10;99.90;;;;;;5073754;28;20463;-75
2022/01/18 10:58:14;;;;;;;12.93;5.40;;;6.30;99.90;;;;;;5072985;28;20500;-76
2022/01/18 11:00:40;;;;;;;13.15;5.78;;;6.20;99.90;;;;;;5091304;28;20713;-76
2022/01/18 11:03:07;;;;;;;14.80;4.90;;;7.60;99.90;;;;;;5072679;28;20036;-76
2022/01/18 11:05:36;;;;;;;14.95;5.55;;;6.20;99.90;;;;;;5075057;28;20127;-77
2022/01/18 11:08:04;;;;;;;13.48;5.88;;;6.10;99.90;;;;;;5091483;28;20039;-75
2022/01/18 11:10:41;;;;;;;17.75;7.68;;;6.00;99.90;;;;;;5089867;28;20078;-75
2022/01/18 11:13:11;;;;;;;18.23;6.55;;;7.00;99.90;;;;;;5082854;28;20055;-75
2022/01/18 11:15:43;;;;;;;15.48;6.50;;;6.20;99.90;;;;;;5076521;28;20497;-73
2022/01/18 11:18:25;;;;;;;15.60;6.43;;;6.50;99.90;;;;;;5090144;28;20047;-74
2022/01/18 11:20:51;;;;;;;23.60;7.40;;;;;;;;;;5082164;28;20047;-80
2022/01/18 11:23:18;;;;;;;14.25;5.95;;;;;;;;;;5092315;28;20043;-77
2022/01/18 11:25:44;;;;;;;21.25;7.63;;;;;;;;;;5090976;28;20085;-76
2022/01/18 11:28:11;;;;;;;12.20;5.57;;;;;;;;;;5092346;28;20043;-77
2022/01/18 11:30:38;;;;;;;18.38;5.75;;;;;;;;;;5076083;28;20398;-76
2022/01/18 11:33:06;;;;;;;16.35;6.60;;;;;;;;;;5092782;28;20040;-77
2022/01/18 11:35:38;;;;;;;19.60;6.72;;;;;;;;;;5076575;28;20096;-76
2022/01/18 11:38:21;;;;;;;20.25;6.13;;;;;;;;;;5092008;28;20040;-76
2022/01/18 11:40:47;;;;;;;15.18;6.15;;;;;;;;;;5093171;28;20496;-77
2022/01/18 11:43:13;;;;;;;16.23;6.75;;;;;;;;;;5092901;28;20485;-76
2022/01/18 11:45:43;;;;;;;19.08;7.00;;;;;;;;;;5092423;28;20032;-77
2022/01/18 11:48:17;;;;;;;15.57;7.00;;;;;;;;;;5076108;28;20054;-77
2022/01/18 11:50:49;;;;;;;19.60;7.88;;;;;;;;;;5076260;28;20122;-77
2022/01/18 11:53:24;;;;;;;22.15;8.15;;;;;;;;;;5075911;28;20480;-77
2022/01/18 11:55:51;;;;;;;14.95;6.22;;;;;;;;;;5092856;28;20044;-77
2022/01/18 11:58:17;;;;;;;15.20;6.05;;;;;;;;;;5092446;28;20040;-77
2022/01/18 12:00:49;;;;;;;17.65;6.43;;;;;;;;;;5093261;28;20056;-78
2022/01/18 12:03:16;;;;;;;17.75;6.35;;;;;;;;;;5092717;28;20039;-77
2022/01/18 12:05:45;;;;;;;18.85;5.90;;;;;;;;;;5075266;28;20040;-77
2022/01/18 12:08:28;;;;;;;25.38;8.48;;;;;;;;;;5075688;28;20565;-77
2022/01/18 12:11:01;;;;;;;17.35;6.97;;;;;;;;;;5092562;28;20488;-77
2022/01/18 12:13:28;;;;;;;15.80;6.78;;;;;;;;;;5091881;28;20066;-77
2022/01/18 12:15:56;;;;;;;20.00;7.35;;;;;;;;;;5075088;28;20055;-77
2022/01/18 12:18:30;;;;;;;24.30;8.63;;;;;;;;;;5075786;28;20044;-77
2022/01/18 12:21:00;;;;;;;17.77;7.10;;;;;;;;;;5091577;28;20139;-77
2022/01/18 12:23:47;;;;;;;23.00;7.32;;;;;;;;;;5092567;28;20039;-77
2022/01/18 12:26:42;;;;;;;20.33;8.13;;;;;;;;;;5075286;28;20127;-76
2022/01/18 12:34:48;;;;;;;18.48;8.23;;;;;;;;;;5091811;28;20050;-77
2022/01/18 12:37:17;;;;;;;18.73;8.13;;;;;;;;;;5092322;28;20051;-77
2022/01/18 12:39:57;;;;;;;20.63;9.38;;;;;;;;;;5092508;28;20071;-77
2022/01/18 12:45:07;;;;;;;21.30;8.43;;;;;;;;;;5091407;28;20044;-77
2022/01/18 12:47:37;;;;;;;20.05;9.88;;;;;;;;;;5091230;28;20044;-77
2022/01/18 12:50:05;;;;;;;23.00;8.60;;;;;;;;;;5074537;28;20039;-76
2022/01/18 12:52:49;;;;;;;20.17;8.95;;;;;;;;;;5075192;28;20047;-77
2022/01/18 12:55:30;;;;;;;21.23;8.35;;;;;;;;;;5091050;28;20044;-77
2022/01/18 12:58:01;;;;;;;20.05;7.75;;;6.50;99.90;;;;;;5091014;28;20036;-77
2022/01/18 13:00:28;;;;;;;21.42;8.45;;;6.50;99.90;;;;;;5092196;28;20389;-77
2022/01/18 13:02:59;;;;;;;21.92;8.07;;;6.40;99.90;;;;;;5090641;28;20547;-76
2022/01/18 13:05:40;;;;;;;21.23;9.18;;;6.40;99.90;;;;;;5091798;28;20040;-76
2022/01/18 13:08:07;;;;;;;21.27;8.30;;;6.50;99.90;;;;;;5091247;28;20048;-76
2022/01/18 13:10:36;;;;;;;20.98;7.88;;;6.20;99.90;;;;;;5090904;28;20040;-77
2022/01/18 13:13:03;;;;;;;20.20;7.78;;;6.40;99.90;;;;;;5091004;28;20078;-77
2022/01/18 13:22:56;;;;;;;20.73;8.10;;;6.60;99.90;;;;;;5091692;28;20511;-77
2022/01/18 13:26:54;;;;;;;21.73;8.13;;;6.40;99.90;;;;;;5090969;28;20504;-77
2022/01/18 13:29:24;;;;;;;20.33;8.13;;;6.20;99.90;;;;;;5091323;28;20066;-77
2022/01/18 13:32:11;;;;;;;19.08;9.27;;;;;;;;;;5090338;28;20334;-76
2022/01/18 13:34:41;;;;;;;18.90;6.93;;;;;;;;;;5091365;28;20036;-76
2022/01/18 13:37:11;;;;;;;21.73;7.93;;;6.30;99.90;;;;;;5089792;28;20044;-77
2022/01/18 13:39:47;;;;;;;20.02;8.02;;;6.30;99.90;;;;;;5090940;28;20044;-77
2022/01/18 13:42:28;;;;;;;17.80;8.80;;;6.30;99.90;;;;;;5090705;28;20119;-77
2022/01/18 13:45:17;;;;;;;24.80;8.63;;;6.30;99.90;;;;;;5106895;28;20040;-77
2022/01/18 13:47:49;;;;;;;21.90;8.95;;;6.30;99.90;;;;;;5091125;28;20036;-76
2022/01/18 13:50:37;;;;;;;24.60;10.10;;;6.50;99.90;;;;;;5090721;28;20044;-77
2022/01/18 13:53:20;;;;;;;20.65;8.63;;;6.30;99.90;;;;;;5073214;28;20396;-77
2022/01/18 13:55:53;;;;;;;17.90;8.70;;;6.30;99.90;;;;;;5090695;28;20044;-77
2022/01/18 13:58:20;;;;;;;16.10;9.20;;;5.40;99.90;;;;;;5090124;28;20044;-76
2022/01/18 14:00:46;;;;;;;20.25;8.88;;;7.10;99.90;;;;;;5090809;28;20106;-77
2022/01/18 14:03:29;;;;;;;21.98;8.73;;;6.10;99.90;;;;;;5090807;28;20051;-77
2022/01/18 14:05:55;;;;;;;21.92;10.23;;;;;;;;;;5072731;28;20051;-77
2022/01/18 14:08:21;;;;;;;21.73;9.68;;;;;;;;;;5090941;28;20048;-78
2022/01/18 14:10:58;;;;;;;27.30;11.98;;;;;;;;;;5090608;28;20044;-77
2022/01/18 14:13:29;;;;;;;27.75;11.60;;;;;;;;;;5089729;28;20047;-77
2022/01/18 14:15:56;;;;;;;26.17;11.18;;;;;;;;;;5093248;28;20122;-74
2022/01/18 14:18:22;;;;;;;25.55;12.13;;;;;;;;;;5091455;28;20449;-70
2022/01/18 14:20:48;;;;;;;29.52;13.02;;;;;;;;;;5071881;28;20239;-72
2022/01/18 14:23:18;;;;;;;24.27;11.65;;;;;;;;;;5085471;28;20075;-72
2022/01/18 14:25:46;;;;;;;28.67;13.07;;;;;;;;;;5073391;28;20085;-72
2022/01/18 14:28:14;;;;;;;32.03;13.20;;;;;;;;;;5088926;28;20048;-73
2022/01/18 14:30:43;;;;;;;32.15;15.25;;;;;;;;;;5099904;28;20044;-72
2022/01/18 14:33:10;;;;;;;23.20;12.00;;;;;;;;;;5109617;28;20036;-72
2022/01/18 14:35:41;;;;;;;26.92;13.20;;;;;;;;;;5085744;28;20129;-71
2022/01/18 14:38:09;;;;;;;29.52;13.13;;;;;;;;;;5090134;28;20465;-72
2022/01/18 14:40:40;;;;;;;26.20;11.00;;;;;;;;;;5073206;28;20032;-72
2022/01/18 14:43:12;;;;;;;30.70;13.32;;;;;;;;;;5088730;28;20101;-72
2022/01/18 14:46:27;;;;;;;36.47;14.35;;;;;;;;;;5090471;28;20048;-72
2022/01/18 14:48:31;;;;;;;27.25;13.50;;;;;;;;;;5081599;28;20496;-72
2022/01/18 14:51:01;;;;;;;25.58;12.10;;;;;;;;;;5089932;28;20467;-72